Time;durP1;ratioP1;P1;durP2;ratioP2;P2;SDS_P1;SDS_P2;PMS_P1;PMS_P2;Temp;Humidity;BMP_temperature;BMP_pressure;BME280_temperature;BME280_humidity;BME280_pressure;Samples;Min_cycle;Max_cycle;Signal;HPM_P1;HPM_P2
2022/08/19 00:01:55;;;;;;;;;;;;;;;;;;2218116;58;1533;-55
2022/08/19 00:04:30;;;;;;;;;;;;;;;;;;2217104;58;1261;-55
2022/08/19 00:07:03;;;;;;;;;;;;;;;;;;2218018;66;1723;-56
2022/08/19 00:09:39;;;;;;;;;;;;;;;;;;2217359;66;1992;-55
2022/08/19 00:12:12;;;;;;;;;;;;;;;;;;2217194;66;1604;-54
2022/08/19 00:14:45;;;;;;;;;;;;;;;;;;2217232;59;1121;-55
2022/08/19 00:17:18;;;;;;;;;;;;;;;;;;2217040;66;1230;-55
2022/08/19 00:19:51;;;;;;;;;;;;;;;;;;2217424;66;1218;-55
2022/08/19 00:22:26;;;;;;;;;;;;;;;;;;2216695;66;1295;-55
2022/08/19 00:25:02;;;;;;;;;;;;;;;;;;2217702;66;1265;-54
2022/08/19 00:27:36;;;;;;;;;;;;;;;;;;2216811;66;1120;-54
2022/08/19 00:30:10;;;;;;;;;;;;;;;;;;2216581;58;1927;-55
2022/08/19 00:32:43;;;;;;;;;;;;;;;;;;2217221;66;1123;-55
2022/08/19 00:35:18;;;;;;;;;;;;;;;;;;2217267;58;1572;-55
2022/08/19 00:37:52;;;;;;;;;;;;;;;;;;2217428;59;1503;-55
2022/08/19 00:40:30;;;;;;;;;;;;;;;;;;2216664;66;1322;-55
2022/08/19 00:43:03;;;;;;;;;;;;;;;;;;2217658;58;1187;-55
2022/08/19 00:45:36;;;;;;;;;;;;;;;;;;2217144;66;1053;-55
2022/08/19 00:48:10;;;;;;;;;;;;;;;;;;2216468;59;1233;-55
2022/08/19 00:50:44;;;;;;;;;;;;;;;;;;2217643;66;1982;-55
2022/08/19 00:53:21;;;;;;;;;;;;;;;;;;2217885;58;1244;-55
2022/08/19 00:55:59;;;;;;;;;;;;;;;;;;2216879;66;1210;-55
2022/08/19 00:58:35;;;;;;;;;;;;;;;;;;2217914;66;1250;-56
2022/08/19 01:01:08;;;;;;;;;;;;;;;;;;2217514;58;1493;-54
2022/08/19 01:03:41;;;;;;;;;;;;;;;;;;2217352;58;1847;-55
2022/08/19 01:06:15;;;;;;;;;;;;;;;;;;2220626;66;1559;-55
2022/08/19 01:08:48;;;;;;;;;;;;;;;;;;2217161;66;1987;-54
2022/08/19 01:11:24;;;;;;;;;;;;;;;;;;2217704;58;1143;-55
2022/08/19 01:13:57;;;;;;;;;;;;;;;;;;2217415;66;1279;-56
2022/08/19 01:16:31;;;;;;;;;;;;;;;;;;2217251;66;1129;-55
2022/08/19 01:19:04;;;;;;;;;;;;;;;;;;2217510;66;1259;-54
2022/08/19 01:21:43;;;;;;;;;;;;;;;;;;2216183;66;1078;-55
2022/08/19 01:24:19;;;;;;;;;;;;;;;;;;2215671;66;1231;-55
2022/08/19 01:26:52;;;;;;;;;;;;;;;;;;2217238;66;1160;-54
2022/08/19 01:29:25;;;;;;;;;;;;;;;;;;2214414;53;2022;-79
2022/08/19 01:32:00;;;;;;;;;;;;;;;;;;2208823;67;1092;-79
2022/08/19 01:34:33;;;;;;;;;;;;;;;;;;2208948;59;1299;-79
2022/08/19 01:37:10;;;;;;;;;;;;;;;;;;2209333;59;1401;-79
2022/08/19 01:39:47;;;;;;;;;;;;;;;;;;2209635;59;2137;-78
2022/08/19 01:42:21;;;;;;;;;;;;;;;;;;2210451;59;1231;-79
2022/08/19 01:44:54;;;;;;;;;;;;;;;;;;2213458;53;3843;-67
2022/08/19 01:47:27;;;;;;;;;;;;;;;;;;2210514;67;1098;-68
2022/08/19 01:50:01;;;;;;;;;;;;;;;;;;2204976;59;1917;-67
2022/08/19 01:52:34;;;;;;;;;;;;;;;;;;2206141;67;1222;-67
2022/08/19 01:55:12;;;;;;;;;;;;;;;;;;2206319;60;989;-68
2022/08/19 01:57:46;;;;;;;;;;;;;;;;;;2206668;59;1119;-67
2022/08/19 02:00:21;;;;;;;;;;;;;;;;;;2206601;67;1270;-67
2022/08/19 02:02:54;;;;;;;;;;;;;;;;;;2205397;59;1587;-68
2022/08/19 02:05:28;;;;;;;;;;;;;;;;;;2205713;67;1213;-67
2022/08/19 02:08:02;;;;;;;;;;;;;;;;;;2207428;59;1329;-68
2022/08/19 02:10:40;;;;;;;;;;;;;;;;;;2205728;59;1941;-67
2022/08/19 02:13:14;;;;;;;;;;;;;;;;;;2206827;59;1237;-66
2022/08/19 02:15:47;;;;;;;;;;;;;;;;;;2207281;67;1278;-67
2022/08/19 02:18:21;;;;;;;;;;;;;;;;;;2205289;67;1237;-67
2022/08/19 02:20:55;;;;;;;;;;;;;;;;;;2205483;67;1090;-67
2022/08/19 02:23:28;;;;;;;;;;;;;;;;;;2207385;67;1238;-67
2022/08/19 02:26:04;;;;;;;;;;;;;;;;;;2206668;67;1127;-67
2022/08/19 02:28:37;;;;;;;;;;;;;;;;;;2207493;67;1314;-67
2022/08/19 02:31:11;;;;;;;;;;;;;;;;;;2205741;67;1944;-67
2022/08/19 02:33:44;;;;;;;;;;;;;;;;;;2207808;59;1339;-67
2022/08/19 02:36:18;;;;;;;;;;;;;;;;;;2207235;59;1327;-67
2022/08/19 02:38:49;;;;;;;;;;;;;;;;;;2205725;67;1178;-67
2022/08/19 02:41:26;;;;;;;;;;;;;;;;;;2207152;67;1261;-67
2022/08/19 02:44:00;;;;;;;;;;;;;;;;;;2205310;59;1201;-67
2022/08/19 02:46:35;;;;;;;;;;;;;;;;;;2205936;67;1211;-67
2022/08/19 02:49:09;;;;;;;;;;;;;;;;;;2205711;67;1286;-67
2022/08/19 02:51:43;;;;;;;;;;;;;;;;;;2206995;67;1034;-67
2022/08/19 02:54:17;;;;;;;;;;;;;;;;;;2207468;67;1199;-67
2022/08/19 02:56:53;;;;;;;;;;;;;;;;;;2207160;67;1064;-67
2022/08/19 02:59:26;;;;;;;;;;;;;;;;;;2206914;67;1262;-67
2022/08/19 03:01:59;;;;;;;;;;;;;;;;;;2205273;59;1540;-67
2022/08/19 03:04:32;;;;;;;;;;;;;;;;;;2206014;59;2763;-67
2022/08/19 03:07:05;;;;;;;;;;;;;;;;;;2205843;59;1133;-67
2022/08/19 03:09:39;;;;;;;;;;;;;;;;;;2207510;67;1945;-67
2022/08/19 03:12:15;;;;;;;;;;;;;;;;;;2206888;59;1307;-67
2022/08/19 03:14:48;;;;;;;;;;;;;;;;;;2206878;67;1133;-67
2022/08/19 03:17:21;;;;;;;;;;;;;;;;;;2207200;60;1204;-68
2022/08/19 03:19:54;;;;;;;;;;;;;;;;;;2205750;67;1308;-67
2022/08/19 03:22:28;;;;;;;;;;;;;;;;;;2206539;67;1207;-67
2022/08/19 03:25:01;;;;;;;;;;;;;;;;;;2206051;67;1188;-67
2022/08/19 03:27:37;;;;;;;;;;;;;;;;;;2205503;67;1129;-67
2022/08/19 03:30:12;;;;;;;;;;;;;;;;;;2206106;67;1941;-67
2022/08/19 03:32:45;;;;;;;;;;;;;;;;;;2206330;67;1155;-67
2022/08/19 03:35:20;;;;;;;;;;;;;;;;;;2207510;59;1365;-67
2022/08/19 03:37:53;;;;;;;;;;;;;;;;;;2206286;59;1590;-67
2022/08/19 03:40:26;;;;;;;;;;;;;;;;;;2208060;67;1306;-67
2022/08/19 03:43:02;;;;;;;;;;;;;;;;;;2205646;67;1364;-68
2022/08/19 03:45:35;;;;;;;;;;;;;;;;;;2206932;67;1160;-67
2022/08/19 03:48:09;;;;;;;;;;;;;;;;;;2206329;67;1291;-67
2022/08/19 03:50:43;;;;;;;;;;;;;;;;;;2207053;67;1928;-67
2022/08/19 03:53:16;;;;;;;;;;;;;;;;;;2205495;67;1259;-67
2022/08/19 03:55:49;;;;;;;;;;;;;;;;;;2206394;67;1066;-67
2022/08/19 03:58:25;;;;;;;;;;;;;;;;;;2205813;67;1260;-67
2022/08/19 04:00:59;;;;;;;;;;;;;;;;;;2205430;67;1244;-67
2022/08/19 04:03:32;;;;;;;;;;;;;;;;;;2205288;59;1824;-67
2022/08/19 04:06:12;;;;;;;;;;;;;;;;;;2203976;67;1163;-67
2022/08/19 04:08:46;;;;;;;;;;;;;;;;;;2204815;67;1232;-67
2022/08/19 04:11:21;;;;;;;;;;;;;;;;;;2204969;59;1937;-68
2022/08/19 04:13:58;;;;;;;;;;;;;;;;;;2204503;67;1124;-68
2022/08/19 04:16:31;;;;;;;;;;;;;;;;;;2204854;67;1243;-68
2022/08/19 04:19:06;;;;;;;;;;;;;;;;;;2204707;67;1258;-68
2022/08/19 04:21:39;;;;;;;;;;;;;;;;;;2206049;67;1030;-68
2022/08/19 04:24:12;;;;;;;;;;;;;;;;;;2204295;67;1097;-68
2022/08/19 04:26:46;;;;;;;;;;;;;;;;;;2204372;67;1196;-68
2022/08/19 04:29:24;;;;;;;;;;;;;;;;;;2205908;67;1154;-67
2022/08/19 04:31:58;;;;;;;;;;;;;;;;;;2204247;67;1932;-67
2022/08/19 04:34:31;;;;;;;;;;;;;;;;;;2204447;67;1236;-67
2022/08/19 04:37:11;;;;;;;;;;;;;;;;;;2206262;59;1343;-68
2022/08/19 04:42:41;;;;;;;;;;;;;;;;;;2206004;67;1153;-67
2022/08/19 04:45:17;;;;;;;;;;;;;;;;;;2205480;59;1207;-66
2022/08/19 04:47:50;;;;;;;;;;;;;;;;;;2205380;67;1139;-67
2022/08/19 04:50:24;;;;;;;;;;;;;;;;;;2205156;67;1987;-67
2022/08/19 04:52:58;;;;;;;;;;;;;;;;;;2204727;67;1278;-68
2022/08/19 04:55:31;;;;;;;;;;;;;;;;;;2205705;67;1251;-68
2022/08/19 04:58:04;;;;;;;;;;;;;;;;;;2205238;67;1242;-68
2022/08/19 05:00:43;;;;;;;;;;;;;;;;;;2206094;67;1306;-68
2022/08/19 05:03:16;;;;;;;;;;;;;;;;;;2205204;59;1591;-68
2022/08/19 05:05:51;;;;;;;;;;;;;;;;;;2204446;67;1066;-68
2022/08/19 05:08:24;;;;;;;;;;;;;;;;;;2205691;67;1274;-67
2022/08/19 05:10:57;;;;;;;;;;;;;;;;;;2205184;59;1932;-68
2022/08/19 05:13:31;;;;;;;;;;;;;;;;;;2204752;67;1130;-68
2022/08/19 05:16:07;;;;;;;;;;;;;;;;;;2205740;67;1203;-67
2022/08/19 05:24:21;;;;;;;;;;;;;;;;;;2206398;67;1127;-69
2022/08/19 05:26:56;;;;;;;;;;;;;;;;;;2204526;67;1101;-69
2022/08/19 05:29:31;;;;;;;;;;;;;;;;;;2205909;59;1327;-69
2022/08/19 05:32:08;;;;;;;;;;;;;;;;;;2204663;67;1935;-68
2022/08/19 05:34:41;;;;;;;;;;;;;;;;;;2205223;59;1275;-69
2022/08/19 05:37:14;;;;;;;;;;;;;;;;;;2205331;67;1411;-68
2022/08/19 05:39:48;;;;;;;;;;;;;;;;;;2204468;67;1249;-68
2022/08/19 05:42:22;;;;;;;;;;;;;;;;;;2205624;59;2171;-68
2022/08/19 05:44:56;;;;;;;;;;;;;;;;;;2203780;59;2196;-68
2022/08/19 05:47:32;;;;;;;;;;;;;;;;;;2205347;59;2283;-68
2022/08/19 05:50:05;;;;;;;;;;;;;;;;;;2203832;59;2519;-68
2022/08/19 05:52:39;;;;;;;;;;;;;;;;;;2205145;59;2378;-69
2022/08/19 05:55:12;;;;;;;;;;;;;;;;;;2204561;59;2456;-69
2022/08/19 05:57:45;;;;;;;;;;;;;;;;;;2203828;59;2103;-70
2022/08/19 06:00:19;;;;;;;;;;;;;;;;;;2204416;59;1792;-68
2022/08/19 06:02:56;;;;;;;;;;;;;;;;;;2204245;59;2421;-69
2022/08/19 06:05:29;;;;;;;;;;;;;;;;;;2205129;59;1864;-69
2022/08/19 06:08:02;;;;;;;;;;;;;;;;;;2205263;67;1584;-68
2022/08/19 06:10:36;;;;;;;;;;;;;;;;;;2205071;59;1941;-68
2022/08/19 06:13:09;;;;;;;;;;;;;;;;;;2205487;59;2312;-68
2022/08/19 06:15:43;;;;;;;;;;;;;;;;;;2204967;59;2341;-69
2022/08/19 06:18:19;;;;;;;;;;;;;;;;;;2204939;67;1760;-68
2022/08/19 06:20:52;;;;;;;;;;;;;;;;;;2206088;67;1166;-68
2022/08/19 06:23:25;;;;;;;;;;;;;;;;;;2205829;59;2272;-68
2022/08/19 06:25:59;;;;;;;;;;;;;;;;;;2204904;59;1857;-68
2022/08/19 06:28:32;;;;;;;;;;;;;;;;;;2204933;59;2539;-68
2022/08/19 06:31:08;;;;;;;;;;;;;;;;;;2205795;59;2524;-68
2022/08/19 06:33:44;;;;;;;;;;;;;;;;;;2205709;59;2535;-69
2022/08/19 06:36:29;;;;;;;;;;;;;;;;;;2206246;59;1954;-68
2022/08/19 06:39:03;;;;;;;;;;;;;;;;;;2205298;59;1820;-69
2022/08/19 06:41:37;;;;;;;;;;;;;;;;;;2205120;59;2310;-68
2022/08/19 06:44:11;;;;;;;;;;;;;;;;;;2205626;59;2273;-69
2022/08/19 06:46:44;;;;;;;;;;;;;;;;;;2205024;59;1816;-69
2022/08/19 06:49:20;;;;;;;;;;;;;;;;;;2210794;59;1725;-69
2022/08/19 06:51:56;;;;;;;;;;;;;;;;;;2209291;59;2420;-69
2022/08/19 06:54:30;;;;;;;;;;;;;;;;;;2211656;59;2473;-69
2022/08/19 06:57:04;;;;;;;;;;;;;;;;;;2212259;59;2262;-69
2022/08/19 06:59:37;;;;;;;;;;;;;;;;;;2212740;59;1973;-68
2022/08/19 07:02:11;;;;;;;;;;;;;;;;;;2212597;59;4977;-69
2022/08/19 07:04:46;;;;;;;;;;;;;;;;;;2209454;59;2393;-68
2022/08/19 07:07:20;;;;;;;;;;;;;;;;;;2214639;59;2631;-69
2022/08/19 07:09:53;;;;;;;;;;;;;;;;;;2212662;59;2372;-69
2022/08/19 07:12:27;;;;;;;;;;;;;;;;;;2213335;59;2459;-69
2022/08/19 07:15:00;;;;;;;;;;;;;;;;;;2213006;59;1701;-69
2022/08/19 07:17:34;;;;;;;;;;;;;;;;;;2212839;59;2353;-69
2022/08/19 07:20:11;;;;;;;;;;;;;;;;;;2213360;59;2419;-69
2022/08/19 07:22:45;;;;;;;;;;;;;;;;;;2213469;59;1751;-69
2022/08/19 07:25:20;;;;;;;;;;;;;;;;;;2214864;59;1282;-69
2022/08/19 07:27:53;;;;;;;;;;;;;;;;;;2213905;59;1263;-68
2022/08/19 07:30:26;;;;;;;;;;;;;;;;;;2214754;66;1249;-69
2022/08/19 07:33:00;;;;;;;;;;;;;;;;;;2214923;59;1932;-68
2022/08/19 07:35:36;;;;;;;;;;;;;;;;;;2214939;59;8066;-68
2022/08/19 07:38:09;;;;;;;;;;;;;;;;;;2214461;59;1265;-68
2022/08/19 07:40:42;;;;;;;;;;;;;;;;;;2213644;59;1092;-68
2022/08/19 07:43:16;;;;;;;;;;;;;;;;;;2213488;58;1266;-68
2022/08/19 07:45:49;;;;;;;;;;;;;;;;;;2215256;66;1176;-68
2022/08/19 07:48:25;;;;;;;;;;;;;;;;;;2214779;66;1267;-68
2022/08/19 07:51:04;;;;;;;;;;;;;;;;;;2214686;66;1932;-67
2022/08/19 07:53:37;;;;;;;;;;;;;;;;;;2214667;59;1385;-68
2022/08/19 07:56:11;;;;;;;;;;;;;;;;;;2214366;66;1223;-68
2022/08/19 07:58:46;;;;;;;;;;;;;;;;;;2214777;66;1230;-69
2022/08/19 08:01:21;;;;;;;;;;;;;;;;;;2214503;59;1598;-68
2022/08/19 08:09:37;;;;;;;;;;;;;;;;;;2214442;66;1229;-69
2022/08/19 08:12:11;;;;;;;;;;;;;;;;;;2214563;59;1932;-69
2022/08/19 08:14:46;;;;;;;;;;;;;;;;;;2214393;66;1135;-69
2022/08/19 08:17:20;;;;;;;;;;;;;;;;;;2214579;66;1283;-69
2022/08/19 08:19:53;;;;;;;;;;;;;;;;;;2214507;66;1272;-69
2022/08/19 08:25:20;;;;;;;;;;;;;;;;;;2214975;66;1153;-69
2022/08/19 08:27:53;;;;;;;;;;;;;;;;;;2214316;66;1415;-69
2022/08/19 08:30:27;;;;;;;;;;;;;;;;;;2214506;66;1200;-67
2022/08/19 08:33:01;;;;;;;;;;;;;;;;;;2214704;59;1980;-68
2022/08/19 08:35:34;;;;;;;;;;;;;;;;;;2212942;66;1210;-69
2022/08/19 08:38:10;;;;;;;;;;;;;;;;;;2214865;66;1251;-68
2022/08/19 08:40:46;;;;;;;;;;;;;;;;;;2214438;66;1198;-68
2022/08/19 08:43:25;;;;;;;;;;;;;;;;;;2214106;59;1262;-69
2022/08/19 08:46:02;;;;;;;;;;;;;;;;;;2214302;66;1232;-69
2022/08/19 08:48:40;;;;;;;;;;;;;;;;;;2214229;66;1269;-68
2022/08/19 08:51:16;;;;;;;;;;;;;;;;;;2213067;66;1229;-68
2022/08/19 08:53:53;;;;;;;;;;;;;;;;;;2213293;66;1083;-68
2022/08/19 08:56:26;;;;;;;;;;;;;;;;;;2214359;66;1120;-69
2022/08/19 08:59:00;;;;;;;;;;;;;;;;;;2212736;66;1300;-68
2022/08/19 09:01:33;;;;;;;;;;;;;;;;;;2213431;59;1637;-69
2022/08/19 09:04:07;;;;;;;;;;;;;;;;;;2213856;59;1659;-69
2022/08/19 09:06:42;;;;;;;;;;;;;;;;;;2213294;66;1134;-68
2022/08/19 09:09:21;;;;;;;;;;;;;;;;;;2214050;66;1243;-68
2022/08/19 09:11:59;;;;;;;;;;;;;;;;;;2213574;59;1924;-68
2022/08/19 09:14:50;;;;;;;;;;;;;;;;;;2213547;66;1327;-69
2022/08/19 09:17:27;;;;;;;;;;;;;;;;;;2213729;66;1268;-69
2022/08/19 09:20:04;;;;;;;;;;;;;;;;;;2212492;66;1436;-69
2022/08/19 09:22:38;;;;;;;;;;;;;;;;;;2213684;66;1111;-69
2022/08/19 09:25:16;;;;;;;;;;;;;;;;;;2213595;66;1202;-68
2022/08/19 09:27:49;;;;;;;;;;;;;;;;;;2212826;66;1772;-69
2022/08/19 09:30:25;;;;;;;;;;;;;;;;;;2213996;66;1317;-69
2022/08/19 09:32:58;;;;;;;;;;;;;;;;;;2212812;66;1936;-69
2022/08/19 09:35:32;;;;;;;;;;;;;;;;;;2213011;66;1373;-68
2022/08/19 09:38:05;;;;;;;;;;;;;;;;;;2213170;66;1227;-69
2022/08/19 09:40:41;;;;;;;;;;;;;;;;;;2215122;66;1136;-69
2022/08/19 09:43:14;;;;;;;;;;;;;;;;;;2212662;59;1310;-69
2022/08/19 09:45:47;;;;;;;;;;;;;;;;;;2213724;66;1132;-68
2022/08/19 09:48:21;;;;;;;;;;;;;;;;;;2213408;66;1244;-69
2022/08/19 09:50:54;;;;;;;;;;;;;;;;;;2212516;66;1089;-69
2022/08/19 09:53:27;;;;;;;;;;;;;;;;;;2213507;66;2043;-69
2022/08/19 09:56:03;;;;;;;;;;;;;;;;;;2213943;66;1148;-69
2022/08/19 09:58:37;;;;;;;;;;;;;;;;;;2213478;66;1316;-69
2022/08/19 10:01:10;;;;;;;;;;;;;;;;;;2213471;59;1954;-68
2022/08/19 10:03:43;;;;;;;;;;;;;;;;;;2212502;59;1908;-70
2022/08/19 10:06:16;;;;;;;;;;;;;;;;;;2213628;59;1303;-69
2022/08/19 10:08:49;;;;;;;;;;;;;;;;;;2213174;66;1266;-69
2022/08/19 10:11:26;;;;;;;;;;;;;;;;;;2213501;59;1213;-69
2022/08/19 10:13:59;;;;;;;;;;;;;;;;;;2212383;66;1936;-68
2022/08/19 10:16:32;;;;;;;;;;;;;;;;;;2211415;66;1308;-69
2022/08/19 10:19:05;;;;;;;;;;;;;;;;;;2212907;59;1254;-69
2022/08/19 10:21:40;;;;;;;;;;;;;;;;;;2213497;66;1139;-68
2022/08/19 10:24:13;;;;;;;;;;;;;;;;;;2213281;66;1211;-69
2022/08/19 10:26:49;;;;;;;;;;;;;;;;;;2212406;66;1100;-69
2022/08/19 10:29:22;;;;;;;;;;;;;;;;;;2212865;66;1245;-69
2022/08/19 10:31:55;;;;;;;;;;;;;;;;;;2212315;66;1247;-68
2022/08/19 10:34:29;;;;;;;;;;;;;;;;;;2213064;66;1115;-69
2022/08/19 10:37:04;;;;;;;;;;;;;;;;;;2214629;66;1338;-68
2022/08/19 10:39:38;;;;;;;;;;;;;;;;;;2213057;66;1291;-69
2022/08/19 10:42:14;;;;;;;;;;;;;;;;;;2213262;66;1261;-69
2022/08/19 10:44:47;;;;;;;;;;;;;;;;;;2212010;59;1295;-69
2022/08/19 10:47:21;;;;;;;;;;;;;;;;;;2213343;66;1236;-68
2022/08/19 10:52:44;;;;;;;;;;;;;;;;;;2213168;66;1931;-68
2022/08/19 10:58:16;;;;;;;;;;;;;;;;;;2205401;67;1337;-68
2022/08/19 11:00:53;;;;;;;;;;;;;;;;;;2213106;59;1390;-68
2022/08/19 11:03:29;;;;;;;;;;;;;;;;;;2213076;59;1470;-68
2022/08/19 11:06:03;;;;;;;;;;;;;;;;;;2213523;66;1316;-68
2022/08/19 11:08:37;;;;;;;;;;;;;;;;;;2213732;66;1263;-68
2022/08/19 11:11:11;;;;;;;;;;;;;;;;;;2214124;59;1605;-67
2022/08/19 11:13:47;;;;;;;;;;;;;;;;;;2212640;66;1930;-68
2022/08/19 11:16:21;;;;;;;;;;;;;;;;;;2213866;66;1440;-68
2022/08/19 11:18:58;;;;;;;;;;;;;;;;;;2213102;66;1300;-68
2022/08/19 11:21:32;;;;;;;;;;;;;;;;;;2214036;66;1200;-68
2022/08/19 11:24:08;;;;;;;;;;;;;;;;;;2214120;66;1032;-68
2022/08/19 11:26:42;;;;;;;;;;;;;;;;;;2213941;66;1333;-69
2022/08/19 11:29:18;;;;;;;;;;;;;;;;;;2214545;66;1250;-68
2022/08/19 11:31:52;;;;;;;;;;;;;;;;;;2214557;66;1176;-69
2022/08/19 11:34:28;;;;;;;;;;;;;;;;;;2213331;59;1932;-69
2022/08/19 11:37:01;;;;;;;;;;;;;;;;;;2213630;59;1306;-69
2022/08/19 11:39:36;;;;;;;;;;;;;;;;;;2213329;66;1369;-69
2022/08/19 11:44:58;;;;;;;;;;;;;;;;;;2212673;59;2308;-69
2022/08/19 11:47:32;;;;;;;;;;;;;;;;;;2213382;66;1255;-68
2022/08/19 11:50:06;;;;;;;;;;;;;;;;;;2212720;66;1238;-69
2022/08/19 11:52:39;;;;;;;;;;;;;;;;;;2212581;66;1932;-68
2022/08/19 11:55:13;;;;;;;;;;;;;;;;;;2213405;66;1242;-68
2022/08/19 11:57:46;;;;;;;;;;;;;;;;;;2213080;66;1124;-68
2022/08/19 12:00:22;;;;;;;;;;;;;;;;;;2214069;66;1305;-68
2022/08/19 12:02:55;;;;;;;;;;;;;;;;;;2214054;59;1784;-68
2022/08/19 12:05:28;;;;;;;;;;;;;;;;;;2213295;66;1242;-68
2022/08/19 12:08:01;;;;;;;;;;;;;;;;;;2213616;66;1254;-68
2022/08/19 12:10:35;;;;;;;;;;;;;;;;;;2214750;59;1180;-68
2022/08/19 12:13:08;;;;;;;;;;;;;;;;;;2214092;66;2004;-68
2022/08/19 12:15:45;;;;;;;;;;;;;;;;;;2213524;66;1068;-68
2022/08/19 12:18:18;;;;;;;;;;;;;;;;;;2214107;66;1235;-68
2022/08/19 12:20:54;;;;;;;;;;;;;;;;;;2213274;66;1369;-68
2022/08/19 12:23:27;;;;;;;;;;;;;;;;;;2210205;66;1368;-68
2022/08/19 12:26:00;;;;;;;;;;;;;;;;;;2213128;66;1199;-68
2022/08/19 12:28:34;;;;;;;;;;;;;;;;;;2213266;66;1286;-67
2022/08/19 12:31:11;;;;;;;;;;;;;;;;;;2213167;59;1214;-67
2022/08/19 12:33:45;;;;;;;;;;;;;;;;;;2214359;66;1935;-69
2022/08/19 12:36:18;;;;;;;;;;;;;;;;;;2213535;59;1397;-68
2022/08/19 12:38:52;;;;;;;;;;;;;;;;;;2213161;66;1323;-69
2022/08/19 12:41:25;;;;;;;;;;;;;;;;;;2213544;66;1228;-69
2022/08/19 12:43:58;;;;;;;;;;;;;;;;;;2213070;59;1394;-68
2022/08/19 12:46:34;;;;;;;;;;;;;;;;;;2213194;66;1198;-68
2022/08/19 12:49:07;;;;;;;;;;;;;;;;;;2214564;66;1312;-69
2022/08/19 12:51:40;;;;;;;;;;;;;;;;;;2213239;66;1168;-68
2022/08/19 12:54:14;;;;;;;;;;;;;;;;;;2213702;66;1933;-68
2022/08/19 12:56:48;;;;;;;;;;;;;;;;;;2214073;66;1175;-68
2022/08/19 12:59:21;;;;;;;;;;;;;;;;;;2212750;66;1208;-68
2022/08/19 13:01:57;;;;;;;;;;;;;;;;;;2213103;59;1641;-68
2022/08/19 13:04:30;;;;;;;;;;;;;;;;;;2213083;59;1231;-68
2022/08/19 13:07:03;;;;;;;;;;;;;;;;;;2213420;66;1245;-68
2022/08/19 13:09:36;;;;;;;;;;;;;;;;;;2214468;59;1291;-68
2022/08/19 13:12:13;;;;;;;;;;;;;;;;;;2213259;66;1108;-68
2022/08/19 13:14:49;;;;;;;;;;;;;;;;;;2214417;66;1930;-67
2022/08/19 13:17:25;;;;;;;;;;;;;;;;;;2214127;66;1215;-68
2022/08/19 13:19:58;;;;;;;;;;;;;;;;;;2213752;66;1321;-68
2022/08/19 13:22:31;;;;;;;;;;;;;;;;;;2213398;66;1206;-68
2022/08/19 13:25:05;;;;;;;;;;;;;;;;;;2214778;66;1061;-68
2022/08/19 13:27:39;;;;;;;;;;;;;;;;;;2213526;66;1198;-68
2022/08/19 13:33:15;;;;;;;;;;;;;;;;;;2213705;66;1937;-68
2022/08/19 13:35:49;;;;;;;;;;;;;;;;;;2214243;59;1351;-68
2022/08/19 13:38:24;;;;;;;;;;;;;;;;;;2214004;66;1284;-69
2022/08/19 13:40:58;;;;;;;;;;;;;;;;;;2213848;66;1199;-69
2022/08/19 13:43:31;;;;;;;;;;;;;;;;;;2213026;66;1292;-69
2022/08/19 13:46:12;;;;;;;;;;;;;;;;;;2213163;66;1070;-68
2022/08/19 13:48:48;;;;;;;;;;;;;;;;;;2213967;66;1810;-69
2022/08/19 13:51:21;;;;;;;;;;;;;;;;;;2213638;66;1262;-68
2022/08/19 13:53:55;;;;;;;;;;;;;;;;;;2213802;66;1994;-69
2022/08/19 13:56:28;;;;;;;;;;;;;;;;;;2213968;66;1265;-69
2022/08/19 13:59:01;;;;;;;;;;;;;;;;;;2213082;66;1242;-69
2022/08/19 14:01:34;;;;;;;;;;;;;;;;;;2213688;59;1538;-67
2022/08/19 14:04:10;;;;;;;;;;;;;;;;;;2214909;59;1300;-68
2022/08/19 14:06:43;;;;;;;;;;;;;;;;;;2214395;66;1088;-69
2022/08/19 14:09:17;;;;;;;;;;;;;;;;;;2214212;66;1299;-66
2022/08/19 14:11:50;;;;;;;;;;;;;;;;;;2214212;59;1104;-66
2022/08/19 14:14:23;;;;;;;;;;;;;;;;;;2214790;66;1931;-66
2022/08/19 14:16:56;;;;;;;;;;;;;;;;;;2213953;66;1294;-67
2022/08/19 14:19:32;;;;;;;;;;;;;;;;;;2212780;66;1247;-67
2022/08/19 14:22:06;;;;;;;;;;;;;;;;;;2213567;66;1213;-68
2022/08/19 14:24:39;;;;;;;;;;;;;;;;;;2214430;66;1206;-67
2022/08/19 14:27:12;;;;;;;;;;;;;;;;;;2213373;66;1244;-68
2022/08/19 14:29:45;;;;;;;;;;;;;;;;;;2214075;66;1311;-68
2022/08/19 14:32:19;;;;;;;;;;;;;;;;;;2215077;66;1294;-69
2022/08/19 14:34:55;;;;;;;;;;;;;;;;;;2213325;66;1984;-68
2022/08/19 14:37:28;;;;;;;;;;;;;;;;;;2214379;59;1410;-68
2022/08/19 14:40:01;;;;;;;;;;;;;;;;;;2214361;66;1307;-69
2022/08/19 14:42:35;;;;;;;;;;;;;;;;;;2213707;59;1217;-70
2022/08/19 14:45:09;;;;;;;;;;;;;;;;;;2214296;59;1039;-69
2022/08/19 14:47:43;;;;;;;;;;;;;;;;;;2214497;66;1191;-70
2022/08/19 14:50:19;;;;;;;;;;;;;;;;;;2214025;59;1372;-69
2022/08/19 14:52:52;;;;;;;;;;;;;;;;;;2213745;66;1170;-69
2022/08/19 14:55:25;;;;;;;;;;;;;;;;;;2214162;66;1921;-69
2022/08/19 14:57:59;;;;;;;;;;;;;;;;;;2213747;66;1242;-69
2022/08/19 15:00:32;;;;;;;;;;;;;;;;;;2213187;66;1312;-69
2022/08/19 15:03:05;;;;;;;;;;;;;;;;;;2214710;59;1580;-69
2022/08/19 15:05:41;;;;;;;;;;;;;;;;;;2214528;66;1182;-69
2022/08/19 15:08:15;;;;;;;;;;;;;;;;;;2214325;66;1255;-69
2022/08/19 15:10:48;;;;;;;;;;;;;;;;;;2214206;59;1323;-70
2022/08/19 15:13:21;;;;;;;;;;;;;;;;;;2214515;66;1264;-69
2022/08/19 15:15:55;;;;;;;;;;;;;;;;;;2214112;66;1990;-69
2022/08/19 15:18:28;;;;;;;;;;;;;;;;;;2214603;66;1318;-69
2022/08/19 15:21:05;;;;;;;;;;;;;;;;;;2212801;66;1326;-69
2022/08/19 15:23:38;;;;;;;;;;;;;;;;;;2214171;66;1136;-69
2022/08/19 15:26:12;;;;;;;;;;;;;;;;;;2213734;66;981;-69
2022/08/19 15:28:45;;;;;;;;;;;;;;;;;;2214462;66;1367;-69
2022/08/19 15:31:21;;;;;;;;;;;;;;;;;;2213044;66;1237;-69
2022/08/19 15:33:55;;;;;;;;;;;;;;;;;;2213229;66;1933;-69
2022/08/19 15:36:31;;;;;;;;;;;;;;;;;;2213165;59;1334;-69
2022/08/19 15:39:06;;;;;;;;;;;;;;;;;;2213548;66;1249;-68
2022/08/19 15:41:39;;;;;;;;;;;;;;;;;;2212113;66;1151;-69
2022/08/19 15:44:17;;;;;;;;;;;;;;;;;;2212482;59;1252;-69
2022/08/19 15:46:50;;;;;;;;;;;;;;;;;;2213621;66;1095;-69
2022/08/19 15:49:24;;;;;;;;;;;;;;;;;;2213170;66;1262;-69
2022/08/19 15:52:00;;;;;;;;;;;;;;;;;;2213297;66;1118;-69
2022/08/19 15:54:33;;;;;;;;;;;;;;;;;;2213181;66;1940;-69
2022/08/19 16:08:24;;;;;;;;;;;;;;;;;;2214122;66;1305;-70
2022/08/19 16:10:57;;;;;;;;;;;;;;;;;;2213061;59;1263;-69
2022/08/19 16:13:31;;;;;;;;;;;;;;;;;;2213845;66;1225;-68
2022/08/19 16:16:04;;;;;;;;;;;;;;;;;;2212914;66;1929;-69
2022/08/19 16:18:38;;;;;;;;;;;;;;;;;;2213437;66;1274;-68
2022/08/19 16:21:12;;;;;;;;;;;;;;;;;;2212432;66;1212;-69
2022/08/19 16:23:48;;;;;;;;;;;;;;;;;;2213598;66;1139;-68
2022/08/19 16:26:23;;;;;;;;;;;;;;;;;;2213049;66;1243;-69
2022/08/19 16:28:56;;;;;;;;;;;;;;;;;;2212970;66;1220;-69
2022/08/19 16:31:30;;;;;;;;;;;;;;;;;;2212937;66;1255;-69
2022/08/19 16:34:03;;;;;;;;;;;;;;;;;;2212495;66;1920;-69
2022/08/19 16:36:40;;;;;;;;;;;;;;;;;;2212836;66;1959;-68
2022/08/19 16:39:17;;;;;;;;;;;;;;;;;;2212865;66;1312;-69
2022/08/19 16:41:51;;;;;;;;;;;;;;;;;;2212820;66;1206;-68
2022/08/19 16:44:26;;;;;;;;;;;;;;;;;;2213520;59;1263;-68
2022/08/19 16:46:59;;;;;;;;;;;;;;;;;;2213177;66;1092;-68
2022/08/19 16:49:33;;;;;;;;;;;;;;;;;;2213548;66;1274;-69
2022/08/19 16:52:08;;;;;;;;;;;;;;;;;;2213019;66;1124;-68
2022/08/19 16:54:44;;;;;;;;;;;;;;;;;;2212508;59;2480;-69
2022/08/19 16:57:18;;;;;;;;;;;;;;;;;;2212059;59;2311;-68
2022/08/19 16:59:51;;;;;;;;;;;;;;;;;;2211901;59;2336;-69
2022/08/19 17:02:24;;;;;;;;;;;;;;;;;;2212772;59;2271;-69
2022/08/19 17:04:58;;;;;;;;;;;;;;;;;;2208930;59;2464;-68
2022/08/19 17:07:32;;;;;;;;;;;;;;;;;;2213432;59;2312;-69
2022/08/19 17:10:08;;;;;;;;;;;;;;;;;;2213000;59;1248;-68
2022/08/19 17:12:41;;;;;;;;;;;;;;;;;;2213815;59;2426;-69
2022/08/19 17:15:14;;;;;;;;;;;;;;;;;;2211581;59;2336;-68
2022/08/19 17:17:48;;;;;;;;;;;;;;;;;;2209169;59;2340;-69
2022/08/19 17:20:22;;;;;;;;;;;;;;;;;;2212954;59;2412;-68
2022/08/19 17:22:56;;;;;;;;;;;;;;;;;;2211904;59;2280;-68
2022/08/19 17:25:32;;;;;;;;;;;;;;;;;;2212665;59;2327;-68
2022/08/19 17:28:08;;;;;;;;;;;;;;;;;;2213024;59;1668;-67
2022/08/19 17:30:41;;;;;;;;;;;;;;;;;;2213658;66;1184;-68
2022/08/19 17:33:15;;;;;;;;;;;;;;;;;;2213260;59;2320;-68
2022/08/19 17:35:49;;;;;;;;;;;;;;;;;;2212194;59;2434;-69
2022/08/19 17:38:25;;;;;;;;;;;;;;;;;;2212041;59;2472;-68
2022/08/19 17:41:03;;;;;;;;;;;;;;;;;;2211889;59;2306;-68
2022/08/19 17:43:37;;;;;;;;;;;;;;;;;;2212018;59;2440;-68
2022/08/19 17:46:11;;;;;;;;;;;;;;;;;;2212364;59;2394;-69
2022/08/19 17:48:48;;;;;;;;;;;;;;;;;;2211573;59;2425;-69
2022/08/19 17:51:23;;;;;;;;;;;;;;;;;;2212400;59;1856;-68
2022/08/19 17:53:56;;;;;;;;;;;;;;;;;;2212158;59;1895;-69
2022/08/19 17:56:32;;;;;;;;;;;;;;;;;;2212480;59;1940;-69
2022/08/19 17:59:05;;;;;;;;;;;;;;;;;;2212032;59;1916;-68
2022/08/19 18:01:39;;;;;;;;;;;;;;;;;;2212901;59;2394;-68
2022/08/19 18:04:12;;;;;;;;;;;;;;;;;;2213395;59;2450;-68
2022/08/19 18:06:45;;;;;;;;;;;;;;;;;;2212455;59;1835;-68
2022/08/19 18:09:18;;;;;;;;;;;;;;;;;;2214030;59;1263;-68
2022/08/19 18:11:55;;;;;;;;;;;;;;;;;;2212643;59;1712;-67
2022/08/19 18:14:30;;;;;;;;;;;;;;;;;;2212848;59;2332;-66
2022/08/19 18:17:07;;;;;;;;;;;;;;;;;;2213032;59;1941;-68
2022/08/19 18:19:42;;;;;;;;;;;;;;;;;;2213141;59;1674;-68
2022/08/19 18:22:23;;;;;;;;;;;;;;;;;;2214660;66;1213;-67
2022/08/19 18:24:57;;;;;;;;;;;;;;;;;;2214444;59;1720;-68
2022/08/19 18:27:33;;;;;;;;;;;;;;;;;;2212876;59;2398;-68
2022/08/19 18:30:08;;;;;;;;;;;;;;;;;;2212567;59;2409;-68
2022/08/19 18:32:42;;;;;;;;;;;;;;;;;;2212533;59;2358;-67